Time;durP1;ratioP1;P1;durP2;ratioP2;P2;SDS_P1;SDS_P2;PMS_P1;PMS_P2;Temp;Humidity;BMP_temperature;BMP_pressure;BME280_temperature;BME280_humidity;BME280_pressure;Samples;Min_cycle;Max_cycle;Signal;HPM_P1;HPM_P2
2023/04/04 00:01:21;;;;;;;7.95;1.77;;;0.80;99.90;;;;;;5030286;28;20021;-78
2023/04/04 00:03:50;;;;;;;3.40;1.30;;;0.80;99.90;;;;;;5003382;28;20478;-78
2023/04/04 00:06:16;;;;;;;2.65;1.40;;;0.80;99.90;;;;;;5030368;28;20389;-77
2023/04/04 00:08:42;;;;;;;5.70;1.40;;;0.80;99.90;;;;;;5027133;28;20026;-77
2023/04/04 00:11:07;;;;;;;2.17;1.30;;;0.70;99.90;;;;;;5037138;28;20378;-77
2023/04/04 00:13:33;;;;;;;2.72;1.20;;;0.70;99.90;;;;;;5039249;28;20065;-78
2023/04/04 00:15:59;;;;;;;3.92;1.50;;;0.70;99.90;;;;;;5029275;28;20389;-77
2023/04/04 00:18:25;;;;;;;3.92;1.45;;;0.70;99.90;;;;;;5038744;28;20048;-78
2023/04/04 00:20:50;;;;;;;3.55;1.42;;;0.70;99.90;;;;;;5030836;28;20033;-77
2023/04/04 00:23:16;;;;;;;8.38;1.80;;;0.60;99.90;;;;;;5029669;28;20424;-78
2023/04/04 00:25:42;;;;;;;2.15;1.10;;;0.60;99.90;;;;;;5028288;28;20487;-78
2023/04/04 00:28:08;;;;;;;2.90;1.57;;;0.50;99.90;;;;;;5027745;28;20034;-78
2023/04/04 00:30:34;;;;;;;2.20;1.20;;;0.50;99.90;;;;;;5028651;28;20029;-77
2023/04/04 00:33:00;;;;;;;6.40;1.60;;;0.50;99.90;;;;;;5032651;28;20025;-78
2023/04/04 00:35:26;;;;;;;5.50;1.87;;;0.40;99.90;;;;;;5021274;28;20025;-77
2023/04/04 00:37:52;;;;;;;2.43;1.13;;;0.40;99.90;;;;;;5037936;28;20021;-79
2023/04/04 00:40:18;;;;;;;4.63;1.67;;;0.40;99.90;;;;;;5036336;28;20032;-78
2023/04/04 00:42:44;;;;;;;18.63;3.57;;;0.30;99.90;;;;;;5032349;28;20044;-77
2023/04/04 00:45:10;;;;;;;4.30;1.50;;;0.30;99.90;;;;;;5034250;28;20478;-78
2023/04/04 00:47:37;;;;;;;3.43;1.40;;;0.30;99.90;;;;;;5032484;28;20500;-77
2023/04/04 00:50:03;;;;;;;4.70;1.73;;;0.30;99.90;;;;;;5030686;28;20049;-79
2023/04/04 00:52:29;;;;;;;5.53;1.60;;;0.20;99.90;;;;;;5034669;28;20112;-78
2023/04/04 00:54:55;;;;;;;4.43;2.40;;;0.20;99.90;;;;;;5031362;28;20411;-77
2023/04/04 00:57:23;;;;;;;2.10;1.57;;;0.10;99.90;;;;;;5026890;28;20105;-78
2023/04/04 00:59:49;;;;;;;6.10;1.73;;;0.10;99.90;;;;;;5027225;28;20033;-78
2023/04/04 01:02:15;;;;;;;5.37;2.13;;;0.10;99.90;;;;;;5025552;28;20404;-78
2023/04/04 01:04:41;;;;;;;4.73;1.00;;;0.10;99.90;;;;;;5017762;28;20041;-78
2023/04/04 01:07:07;;;;;;;4.70;1.50;;;0.10;99.90;;;;;;5035266;28;20036;-78
2023/04/04 01:09:33;;;;;;;10.93;2.70;;;0.00;99.90;;;;;;5034748;28;20033;-79
2023/04/04 01:12:00;;;;;;;6.00;2.10;;;0.00;99.90;;;;;;5023702;28;20034;-78
2023/04/04 01:14:25;;;;;;;7.33;1.93;;;-0.10;99.90;;;;;;5031304;28;20021;-78
2023/04/04 01:16:55;;;;;;;3.57;1.70;;;-0.20;99.90;;;;;;5036362;28;20047;-78
2023/04/04 01:19:27;;;;;;;5.47;1.50;;;-0.20;99.90;;;;;;5033256;28;20029;-79
2023/04/04 01:21:55;;;;;;;3.37;1.43;;;-0.30;99.90;;;;;;5029219;28;20029;-79
2023/04/04 01:24:23;;;;;;;5.43;2.43;;;-0.30;99.90;;;;;;5028178;28;20034;-79
2023/04/04 01:26:50;;;;;;;2.97;1.60;;;-0.30;99.90;;;;;;5027944;28;20037;-79
2023/04/04 01:29:16;;;;;;;4.97;1.70;;;-0.30;99.90;;;;;;5037764;28;20033;-79
2023/04/04 01:31:56;;;;;;;4.57;1.50;;;-0.20;99.90;;;;;;5042133;28;20025;-79
2023/04/04 01:34:40;;;;;;;5.23;1.70;;;-0.20;99.90;;;;;;5031747;28;20385;-79
2023/04/04 01:37:14;;;;;;;4.50;1.42;;;-0.20;99.90;;;;;;5032385;28;20021;-79
2023/04/04 01:39:49;;;;;;;3.42;1.50;;;-0.20;99.90;;;;;;5024245;28;20397;-79
2023/04/04 01:42:15;;;;;;;10.07;1.60;;;-0.20;99.90;;;;;;5031322;28;20473;-79
2023/04/04 01:44:41;;;;;;;4.87;1.93;;;-0.20;99.90;;;;;;5032421;28;20051;-78
2023/04/04 01:47:10;;;;;;;6.10;2.07;;;-0.20;99.90;;;;;;5034287;28;20025;-78
2023/04/04 01:49:38;;;;;;;3.17;1.80;;;-0.20;99.90;;;;;;5030177;28;20069;-78
2023/04/04 01:52:06;;;;;;;6.77;1.50;;;-0.20;99.90;;;;;;5025946;28;20022;-78
2023/04/04 01:54:32;;;;;;;6.37;1.97;;;-0.20;99.90;;;;;;5026340;28;20029;-78
2023/04/04 01:56:58;;;;;;;4.83;1.60;;;-0.20;99.90;;;;;;5036733;28;20030;-79
2023/04/04 01:59:24;;;;;;;3.57;1.63;;;-0.20;99.90;;;;;;5032178;28;20433;-79
2023/04/04 02:01:50;;;;;;;4.17;1.33;;;-0.20;99.90;;;;;;5032050;28;20067;-78
2023/04/04 02:04:15;;;;;;;6.93;1.50;;;-0.20;99.90;;;;;;5003567;28;20449;-78
2023/04/04 02:06:41;;;;;;;6.17;1.73;;;-0.30;99.90;;;;;;5033182;28;20023;-78
2023/04/04 02:09:07;;;;;;;2.87;1.40;;;-0.30;99.90;;;;;;5028079;28;20505;-79
2023/04/04 02:11:33;;;;;;;3.10;2.23;;;-0.30;99.90;;;;;;5034741;28;20072;-79
2023/04/04 02:13:59;;;;;;;3.80;1.73;;;-0.30;99.90;;;;;;5025162;28;20409;-79
2023/04/04 02:16:25;;;;;;;4.20;1.60;;;-0.30;99.90;;;;;;5029068;28;20387;-78
2023/04/04 02:18:51;;;;;;;6.87;1.97;;;-0.30;99.90;;;;;;5030328;28;20164;-79
2023/04/04 02:21:17;;;;;;;3.63;1.47;;;-0.30;99.90;;;;;;5030364;28;20026;-78
2023/04/04 02:23:42;;;;;;;2.33;1.30;;;-0.30;99.90;;;;;;5029306;28;20631;-78
2023/04/04 02:26:08;;;;;;;4.60;2.03;;;-0.40;99.90;;;;;;5030021;28;20025;-79
2023/04/04 02:28:34;;;;;;;4.00;1.87;;;-0.40;99.90;;;;;;5026658;28;20484;-79
2023/04/04 02:31:03;;;;;;;5.37;2.13;;;-0.40;99.90;;;;;;5025785;28;20144;-79
2023/04/04 02:33:29;;;;;;;13.37;2.03;;;-0.40;99.90;;;;;;5033183;28;20033;-79
2023/04/04 02:35:58;;;;;;;5.40;1.90;;;-0.40;99.90;;;;;;5026725;28;20103;-78
2023/04/04 02:38:25;;;;;;;2.87;1.50;;;-0.40;99.90;;;;;;5034879;28;20022;-78
2023/04/04 02:40:51;;;;;;;4.90;1.40;;;-0.40;99.90;;;;;;5030254;28;20021;-79
2023/04/04 02:43:16;;;;;;;3.23;1.60;;;-0.50;99.90;;;;;;5026874;28;20033;-79
2023/04/04 02:45:42;;;;;;;2.20;1.30;;;-0.50;99.90;;;;;;5036088;28;20393;-78
2023/04/04 02:48:09;;;;;;;4.53;1.93;;;-0.50;99.90;;;;;;5031637;28;20026;-78
2023/04/04 02:50:35;;;;;;;3.47;1.60;;;-0.60;99.90;;;;;;5031026;28;20028;-79
2023/04/04 02:53:01;;;;;;;4.67;1.70;;;-0.70;99.90;;;;;;5029015;28;20406;-79
2023/04/04 02:55:27;;;;;;;7.10;1.93;;;-0.70;99.90;;;;;;5029474;28;20096;-79
2023/04/04 02:57:53;;;;;;;9.33;2.27;;;-0.80;99.90;;;;;;5030169;28;20028;-79
2023/04/04 03:00:19;;;;;;;9.17;1.90;;;-0.90;99.90;;;;;;5031568;28;20052;-78
2023/04/04 03:02:47;;;;;;;2.23;1.30;;;-0.90;99.90;;;;;;5030605;28;20087;-78
2023/04/04 03:05:13;;;;;;;4.13;1.53;;;-1.10;99.90;;;;;;5010675;28;20045;-79
2023/04/04 03:07:38;;;;;;;5.10;1.40;;;-1.10;99.90;;;;;;5032225;28;20021;-79
2023/04/04 03:10:04;;;;;;;5.30;1.93;;;-1.20;99.90;;;;;;5039914;28;20025;-78
2023/04/04 03:12:30;;;;;;;7.77;1.80;;;-1.10;99.90;;;;;;5031551;28;20033;-78
2023/04/04 03:14:56;;;;;;;3.63;1.23;;;-1.10;99.90;;;;;;5029718;28;20029;-79
2023/04/04 03:17:21;;;;;;;7.77;2.00;;;-1.00;99.90;;;;;;5025444;28;20391;-78
2023/04/04 03:19:47;;;;;;;4.93;1.53;;;-1.00;99.90;;;;;;5025637;28;20382;-78
2023/04/04 03:22:13;;;;;;;5.63;1.57;;;-1.00;99.90;;;;;;5031059;28;20104;-80
2023/04/04 03:24:38;;;;;;;5.57;1.97;;;-0.90;99.90;;;;;;5034988;28;20033;-78
2023/04/04 03:27:04;;;;;;;6.07;2.03;;;-1.00;99.90;;;;;;5024188;28;20084;-79
2023/04/04 03:29:30;;;;;;;5.43;1.60;;;-1.00;99.90;;;;;;5022893;28;20121;-79
2023/04/04 03:31:55;;;;;;;7.93;1.90;;;-1.00;99.90;;;;;;5032511;28;20025;-79
2023/04/04 03:34:22;;;;;;;5.17;1.60;;;-1.10;99.90;;;;;;5029463;28;20028;-79
2023/04/04 03:36:47;;;;;;;6.17;1.93;;;-1.10;99.90;;;;;;5030896;28;20081;-79
2023/04/04 03:39:13;;;;;;;6.50;2.53;;;-1.20;99.90;;;;;;5030653;28;20026;-79
2023/04/04 03:41:39;;;;;;;5.13;1.73;;;-1.20;99.90;;;;;;5026363;28;20543;-78
2023/04/04 03:44:05;;;;;;;4.93;1.97;;;-1.20;99.90;;;;;;5030458;28;20027;-79
2023/04/04 03:46:31;;;;;;;7.87;1.80;;;-1.20;99.90;;;;;;5028220;28;20036;-79
2023/04/04 03:48:56;;;;;;;6.53;1.60;;;-1.30;99.90;;;;;;5021467;28;20022;-80
2023/04/04 03:51:26;;;;;;;11.63;1.90;;;-1.30;99.90;;;;;;5029585;28;20029;-79
2023/04/04 03:53:51;;;;;;;3.60;1.83;;;-1.30;99.90;;;;;;5028069;28;20084;-78
2023/04/04 03:56:17;;;;;;;3.53;1.60;;;-1.30;99.90;;;;;;5027115;28;20398;-79
2023/04/04 03:58:44;;;;;;;6.83;2.17;;;-1.40;99.90;;;;;;5026374;28;20099;-79
2023/04/04 04:01:10;;;;;;;4.20;2.07;;;-1.30;99.90;;;;;;5026699;28;20014;-79
2023/04/04 04:03:36;;;;;;;6.00;2.30;;;-1.40;99.90;;;;;;5024784;28;20492;-80
2023/04/04 04:06:02;;;;;;;6.07;2.03;;;-1.40;99.90;;;;;;5005376;28;20042;-79
2023/04/04 04:08:27;;;;;;;5.30;1.87;;;-1.40;99.90;;;;;;5025511;28;20025;-78
2023/04/04 04:10:53;;;;;;;3.97;1.73;;;-1.40;99.90;;;;;;5026182;28;20091;-78
2023/04/04 04:13:19;;;;;;;9.70;2.33;;;-1.30;99.90;;;;;;5030584;28;20505;-78
2023/04/04 04:15:45;;;;;;;6.17;1.50;;;-1.30;99.90;;;;;;5034605;28;20096;-79
2023/04/04 04:18:11;;;;;;;6.67;1.93;;;-1.20;99.90;;;;;;5033112;28;20095;-80
2023/04/04 04:20:36;;;;;;;5.47;1.70;;;-1.30;99.90;;;;;;5034821;28;20029;-79
2023/04/04 04:23:02;;;;;;;6.23;2.77;;;-1.30;99.90;;;;;;5033925;28;20033;-79
2023/04/04 04:25:27;;;;;;;5.67;1.87;;;-1.30;99.90;;;;;;5034097;28;20109;-79
2023/04/04 04:27:56;;;;;;;7.13;1.67;;;-1.40;99.90;;;;;;5029383;28;20025;-78
2023/04/04 04:30:22;;;;;;;7.67;2.03;;;-1.40;99.90;;;;;;5035861;28;20029;-80
2023/04/04 04:32:51;;;;;;;8.93;1.90;;;-1.40;99.90;;;;;;5033007;28;20148;-78
2023/04/04 04:35:17;;;;;;;7.70;1.97;;;-1.40;99.90;;;;;;5031564;28;20127;-79
2023/04/04 04:37:42;;;;;;;8.53;2.07;;;-1.40;99.90;;;;;;5035176;28;20572;-79
2023/04/04 04:40:09;;;;;;;3.43;1.60;;;-1.30;99.90;;;;;;5039419;28;22012;-79
2023/04/04 04:42:35;;;;;;;3.57;1.40;;;-1.30;99.90;;;;;;5042134;28;20440;-79
2023/04/04 04:45:00;;;;;;;3.57;1.87;;;-1.30;99.90;;;;;;5033705;28;20030;-80
2023/04/04 04:47:28;;;;;;;5.83;1.57;;;-1.30;99.90;;;;;;5028880;28;20034;-78
2023/04/04 04:49:54;;;;;;;7.20;1.77;;;-1.30;99.90;;;;;;5036664;28;20061;-79
2023/04/04 04:52:20;;;;;;;2.67;1.37;;;-1.30;99.90;;;;;;5034256;28;20045;-78
2023/04/04 04:54:45;;;;;;;10.17;2.10;;;-1.20;99.90;;;;;;5029499;28;20021;-79
2023/04/04 04:57:11;;;;;;;6.23;1.67;;;-1.20;99.90;;;;;;5028640;28;20030;-79
2023/04/04 04:59:37;;;;;;;5.97;1.47;;;-1.20;99.90;;;;;;5027634;28;20084;-79
2023/04/04 05:02:03;;;;;;;7.77;1.20;;;-1.20;99.90;;;;;;5030479;28;20048;-79
2023/04/04 05:04:28;;;;;;;6.33;2.60;;;-1.20;99.90;;;;;;5030459;28;20118;-79
2023/04/04 05:06:54;;;;;;;8.27;2.10;;;-1.30;99.90;;;;;;5004002;28;20052;-79
2023/04/04 05:09:20;;;;;;;8.77;3.13;;;-1.20;99.90;;;;;;5029420;28;20042;-79
2023/04/04 05:11:46;;;;;;;7.20;2.53;;;-1.30;99.90;;;;;;5033266;28;20038;-78
2023/04/04 05:14:12;;;;;;;3.37;1.93;;;-1.30;99.90;;;;;;5037505;28;20013;-81
2023/04/04 05:16:37;;;;;;;5.43;2.53;;;-1.30;99.90;;;;;;5033251;28;20028;-78
2023/04/04 05:19:03;;;;;;;5.37;2.03;;;-1.30;99.90;;;;;;5038720;28;20409;-79
2023/04/04 05:21:29;;;;;;;34.37;16.73;;;-1.30;99.90;;;;;;5027438;28;20041;-78
2023/04/04 05:23:56;;;;;;;15.90;7.83;;;-1.30;99.90;;;;;;5037239;28;20334;-79
2023/04/04 05:26:21;;;;;;;10.70;5.40;;;-1.30;99.90;;;;;;5031665;28;20026;-78
2023/04/04 05:28:47;;;;;;;6.40;3.23;;;-1.30;99.90;;;;;;5028118;28;20022;-79
2023/04/04 05:31:13;;;;;;;3.53;2.13;;;-1.40;99.90;;;;;;5028258;28;20250;-80
2023/04/04 05:33:39;;;;;;;5.30;2.80;;;-1.40;99.90;;;;;;5038007;28;20128;-79
2023/04/04 05:36:04;;;;;;;6.13;3.07;;;-1.40;99.90;;;;;;5031849;28;20025;-79
2023/04/04 05:38:30;;;;;;;4.53;2.20;;;-1.40;99.90;;;;;;5034434;28;20052;-78
2023/04/04 05:40:56;;;;;;;7.63;3.70;;;-1.30;99.90;;;;;;5030565;28;21706;-78
2023/04/04 05:43:21;;;;;;;5.93;2.93;;;-1.20;99.90;;;;;;5029921;28;20032;-79
2023/04/04 05:45:47;;;;;;;3.87;2.07;;;-1.00;99.90;;;;;;5032698;28;20119;-80
2023/04/04 05:48:14;;;;;;;6.67;2.43;;;-0.80;99.90;;;;;;5026866;28;20110;-79
2023/04/04 05:50:39;;;;;;;8.00;1.37;;;-0.60;99.90;;;;;;5046889;28;20033;-80
2023/04/04 05:53:05;;;;;;;7.37;1.87;;;-0.50;99.90;;;;;;5030981;28;20030;-78
2023/04/04 05:55:31;;;;;;;4.87;1.93;;;-0.30;99.90;;;;;;5026519;28;20026;-79
2023/04/04 05:57:57;;;;;;;5.83;2.23;;;0.00;99.90;;;;;;5029574;28;20029;-79
2023/04/04 06:00:22;;;;;;;3.93;2.13;;;0.20;99.90;;;;;;5027166;28;20482;-78
2023/04/04 06:02:48;;;;;;;4.05;2.10;;;0.50;99.90;;;;;;5028099;28;20060;-78
2023/04/04 06:05:14;;;;;;;6.05;2.03;;;1.00;99.90;;;;;;5030026;28;20026;-79
2023/04/04 06:07:40;;;;;;;15.18;2.70;;;1.40;99.90;;;;;;5011360;28;20045;-78
2023/04/04 06:10:06;;;;;;;8.20;2.83;;;1.90;99.90;;;;;;5030219;28;20029;-79
2023/04/04 06:12:32;;;;;;;5.00;1.90;;;2.70;99.90;;;;;;5036078;28;20056;-78
2023/04/04 06:14:58;;;;;;;5.30;2.20;;;3.70;99.90;;;;;;5030007;28;20018;-77
2023/04/04 06:17:24;;;;;;;4.57;1.80;;;5.00;99.90;;;;;;5029223;28;20026;-78
2023/04/04 06:19:50;;;;;;;6.20;1.88;;;6.00;98.40;;;;;;5024130;28;20364;-78
2023/04/04 06:22:16;;;;;;;5.93;1.80;;;6.40;97.10;;;;;;5039366;28;20079;-78
2023/04/04 06:24:42;;;;;;;6.90;1.70;;;6.30;97.40;;;;;;5028385;28;20116;-77
2023/04/04 06:27:08;;;;;;;3.90;1.65;;;6.30;96.90;;;;;;5027528;28;20127;-78
2023/04/04 06:29:33;;;;;;;5.10;1.83;;;5.80;97.10;;;;;;5038044;28;20024;-77
2023/04/04 06:31:59;;;;;;;3.50;1.50;;;5.80;97.30;;;;;;5032148;28;20520;-78
2023/04/04 06:34:25;;;;;;;4.72;1.85;;;5.80;97.00;;;;;;5029197;28;20033;-77
2023/04/04 06:36:51;;;;;;;3.88;1.55;;;5.80;97.10;;;;;;5033059;28;20651;-77
2023/04/04 06:39:17;;;;;;;8.38;1.42;;;5.60;96.60;;;;;;5034763;28;20663;-77
2023/04/04 06:41:42;;;;;;;8.02;2.53;;;5.20;97.20;;;;;;5028693;28;20025;-77
2023/04/04 06:44:08;;;;;;;3.00;1.42;;;4.60;97.90;;;;;;5026418;28;20128;-77
2023/04/04 06:46:36;;;;;;;6.45;2.10;;;4.10;98.50;;;;;;5031937;28;20029;-76
2023/04/04 06:49:02;;;;;;;3.78;1.60;;;3.70;99.30;;;;;;5036140;28;20091;-77
2023/04/04 06:51:27;;;;;;;3.80;1.50;;;3.80;99.50;;;;;;5030991;28;20026;-77
2023/04/04 06:53:55;;;;;;;2.95;1.30;;;3.70;99.00;;;;;;5023784;28;20359;-78
2023/04/04 06:56:21;;;;;;;6.18;2.35;;;3.90;99.30;;;;;;5027021;28;20503;-77
2023/04/04 06:58:47;;;;;;;4.25;2.00;;;4.60;98.80;;;;;;5035297;28;20021;-78
2023/04/04 07:01:13;;;;;;;9.30;2.40;;;5.70;97.70;;;;;;5031002;28;20017;-78
2023/04/04 07:03:38;;;;;;;3.85;1.83;;;6.50;96.30;;;;;;5031461;28;20025;-78
2023/04/04 07:06:04;;;;;;;5.50;2.42;;;7.20;94.40;;;;;;5015320;28;20564;-78
2023/04/04 07:08:32;;;;;;;7.38;2.03;;;7.50;94.10;;;;;;5030655;28;20029;-77
2023/04/04 07:10:58;;;;;;;4.63;1.75;;;7.50;93.50;;;;;;5032151;28;20556;-79
2023/04/04 07:13:24;;;;;;;3.70;1.73;;;8.20;93.30;;;;;;5031964;28;20104;-78
2023/04/04 07:15:49;;;;;;;5.30;1.80;;;9.20;91.30;;;;;;5035264;28;20108;-78
2023/04/04 07:18:15;;;;;;;3.67;1.50;;;8.60;90.50;;;;;;5028519;28;20026;-78
2023/04/04 07:20:42;;;;;;;3.90;1.50;;;9.30;91.00;;;;;;5031443;28;20056;-78
2023/04/04 07:23:09;;;;;;;3.60;1.70;;;8.90;90.00;;;;;;5037422;28;20025;-78
2023/04/04 07:25:36;;;;;;;2.80;1.80;;;8.00;91.30;;;;;;5031647;28;20029;-78
2023/04/04 07:28:01;;;;;;;3.38;1.65;;;7.20;92.10;;;;;;5022769;28;20032;-77
2023/04/04 07:30:29;;;;;;;2.83;1.60;;;6.90;92.90;;;;;;5030268;28;20025;-77
2023/04/04 07:33:01;;;;;;;6.97;1.90;;;7.00;93.20;;;;;;5028689;28;20025;-77
2023/04/04 07:35:27;;;;;;;7.85;1.70;;;7.50;92.90;;;;;;5026674;28;20095;-78
2023/04/04 07:37:53;;;;;;;7.07;1.58;;;8.10;92.30;;;;;;5038998;28;20013;-78
2023/04/04 07:40:19;;;;;;;5.72;1.63;;;8.80;91.80;;;;;;5032356;28;20038;-78
2023/04/04 07:42:46;;;;;;;2.03;1.40;;;9.60;89.80;;;;;;5031356;28;20478;-78
2023/04/04 07:45:12;;;;;;;10.77;2.05;;;10.20;86.10;;;;;;5035714;28;20048;-77
2023/04/04 07:47:45;;;;;;;5.25;1.80;;;10.00;89.20;;;;;;5026086;28;20029;-78
2023/04/04 07:50:15;;;;;;;6.68;1.88;;;10.90;87.10;;;;;;5029719;28;20029;-78
2023/04/04 07:52:41;;;;;;;3.80;1.83;;;11.10;82.40;;;;;;5039127;28;20095;-79
2023/04/04 07:55:08;;;;;;;3.30;2.10;;;12.80;80.30;;;;;;5035427;28;20026;-79
2023/04/04 07:57:38;;;;;;;1.40;1.25;;;12.60;78.20;;;;;;5042315;28;20094;-79
2023/04/04 08:00:08;;;;;;;4.22;1.85;;;13.80;75.10;;;;;;5035533;28;20103;-78
2023/04/04 08:02:35;;;;;;;5.35;1.40;;;14.70;72.70;;;;;;5028609;28;20381;-79
2023/04/04 08:05:00;;;;;;;3.85;1.70;;;14.50;72.20;;;;;;5035488;28;20378;-79
2023/04/04 08:07:26;;;;;;;3.13;1.50;;;13.60;73.70;;;;;;5020275;28;20041;-78
2023/04/04 08:09:52;;;;;;;2.47;1.20;;;13.30;72.20;;;;;;5033611;28;20079;-78
2023/04/04 08:12:18;;;;;;;5.55;1.70;;;14.00;71.50;;;;;;5042160;28;20059;-79
2023/04/04 08:14:43;;;;;;;7.80;1.30;;;14.50;68.00;;;;;;5037917;28;20032;-79
2023/04/04 08:17:09;;;;;;;5.75;1.48;;;14.80;68.90;;;;;;5032878;28;20040;-79
2023/04/04 08:19:35;;;;;;;3.10;1.48;;;14.80;67.40;;;;;;5032483;28;20029;-78
2023/04/04 08:22:01;;;;;;;3.45;1.52;;;14.60;68.50;;;;;;5026959;28;20021;-78
2023/04/04 08:24:27;;;;;;;4.18;1.90;;;14.30;69.40;;;;;;5027311;28;20390;-78
2023/04/04 08:26:53;;;;;;;1.75;1.30;;;14.70;65.40;;;;;;5029960;28;20026;-77
2023/04/04 08:29:19;;;;;;;3.42;1.50;;;14.20;68.40;;;;;;5029681;28;20575;-77
2023/04/04 08:31:44;;;;;;;3.35;1.58;;;14.00;64.70;;;;;;5031217;28;20053;-76
2023/04/04 08:34:10;;;;;;;5.55;2.53;;;14.70;64.30;;;;;;5027940;28;20053;-78
2023/04/04 08:36:36;;;;;;;2.85;1.35;;;15.50;62.20;;;;;;5025628;28;20014;-75
2023/04/04 08:39:02;;;;;;;4.75;1.75;;;15.60;62.00;;;;;;5030398;28;20366;-75
2023/04/04 08:41:29;;;;;;;4.13;1.80;;;15.40;63.40;;;;;;5033015;28;20029;-76
2023/04/04 08:44:00;;;;;;;4.30;1.70;;;15.10;61.50;;;;;;5034624;28;20075;-75
2023/04/04 08:46:26;;;;;;;4.07;1.95;;;15.40;61.10;;;;;;5036621;28;20412;-78
2023/04/04 08:48:55;;;;;;;7.15;2.10;;;14.80;63.80;;;;;;5027204;28;20525;-78
2023/04/04 08:51:23;;;;;;;4.90;2.00;;;14.20;61.40;;;;;;5031484;28;20037;-78
2023/04/04 08:53:49;;;;;;;3.50;2.13;;;13.20;63.30;;;;;;5032404;28;20025;-78
2023/04/04 08:56:14;;;;;;;2.83;2.10;;;12.50;64.40;;;;;;5036169;28;20124;-79
2023/04/04 08:58:40;;;;;;;2.55;1.70;;;12.50;65.00;;;;;;5033967;28;20388;-78
2023/04/04 09:01:06;;;;;;;2.25;1.73;;;13.20;66.40;;;;;;5037919;28;20041;-76
2023/04/04 09:03:33;;;;;;;3.97;1.70;;;13.60;63.30;;;;;;5033365;28;20100;-76
2023/04/04 09:06:01;;;;;;;7.22;2.10;;;13.30;62.60;;;;;;5028395;28;20025;-76
2023/04/04 09:08:27;;;;;;;2.50;1.52;;;13.90;64.00;;;;;;5010817;28;20102;-75
2023/04/04 09:10:54;;;;;;;2.25;1.48;;;14.10;63.60;;;;;;5038939;28;20118;-77
2023/04/04 09:13:20;;;;;;;2.97;2.05;;;14.20;61.40;;;;;;5040564;28;20071;-77
2023/04/04 09:15:51;;;;;;;2.38;1.73;;;13.20;62.60;;;;;;5034493;28;20045;-76
2023/04/04 09:18:17;;;;;;;5.10;2.20;;;13.80;63.30;;;;;;5031889;28;20033;-75
2023/04/04 09:20:45;;;;;;;3.55;2.20;;;14.00;62.10;;;;;;5027232;28;20465;-75
2023/04/04 09:23:19;;;;;;;3.83;2.15;;;13.20;62.80;;;;;;5030277;28;20086;-76
2023/04/04 09:25:48;;;;;;;4.05;1.83;;;13.20;62.20;;;;;;5032924;28;21450;-78
2023/04/04 09:28:15;;;;;;;2.65;1.83;;;13.20;62.20;;;;;;5034363;28;20022;-78
2023/04/04 09:30:42;;;;;;;5.65;1.95;;;13.50;63.70;;;;;;5032684;28;20381;-78
2023/04/04 09:33:10;;;;;;;4.10;1.83;;;14.00;62.40;;;;;;5028669;28;20060;-76
2023/04/04 09:35:37;;;;;;;3.08;1.92;;;14.30;62.50;;;;;;5041806;28;20029;-78
2023/04/04 09:38:06;;;;;;;3.63;2.40;;;14.30;62.80;;;;;;5029673;28;20025;-78
2023/04/04 09:40:35;;;;;;;4.50;2.50;;;14.50;61.40;;;;;;5027711;28;20021;-79
2023/04/04 09:43:02;;;;;;;3.53;2.28;;;14.30;60.20;;;;;;5021236;28;20549;-77
2023/04/04 09:45:31;;;;;;;2.35;1.75;;;14.30;60.60;;;;;;5032258;28;20116;-78
2023/04/04 09:47:57;;;;;;;3.30;1.75;;;13.40;62.30;;;;;;5033663;28;20047;-76
2023/04/04 09:50:24;;;;;;;4.00;2.15;;;13.20;61.80;;;;;;5026272;28;20026;-76
2023/04/04 09:52:51;;;;;;;5.28;2.10;;;12.60;61.50;;;;;;5027711;28;20108;-76
2023/04/04 09:55:17;;;;;;;5.43;2.67;;;12.70;61.60;;;;;;5019598;28;20060;-76
2023/04/04 09:57:45;;;;;;;3.13;1.90;;;12.40;63.10;;;;;;5029589;28;20060;-76
2023/04/04 10:00:17;;;;;;;4.25;2.35;;;12.10;63.40;;;;;;5028198;28;20026;-76
2023/04/04 10:02:47;;;;;;;4.78;2.35;;;12.40;62.90;;;;;;5024559;28;20112;-76
2023/04/04 10:05:13;;;;;;;3.72;1.95;;;11.90;63.30;;;;;;5025755;28;20056;-75
2023/04/04 10:07:41;;;;;;;4.22;1.90;;;10.90;65.20;;;;;;5007291;28;20073;-75
2023/04/04 10:10:10;;;;;;;5.32;1.92;;;10.80;66.30;;;;;;5028348;28;20028;-76
2023/04/04 10:12:37;;;;;;;2.85;1.90;;;10.40;65.90;;;;;;5031769;28;20390;-76
2023/04/04 10:15:04;;;;;;;3.25;2.05;;;9.90;69.20;;;;;;5038197;28;20359;-75
2023/04/04 10:17:40;;;;;;;3.38;1.88;;;9.70;70.10;;;;;;5029795;28;20025;-75
2023/04/04 10:20:08;;;;;;;4.97;1.60;;;9.80;70.20;;;;;;5029350;28;20032;-76
2023/04/04 10:22:35;;;;;;;2.72;1.42;;;10.00;67.30;;;;;;5028162;28;20029;-75
2023/04/04 10:25:01;;;;;;;5.03;1.90;;;9.70;68.70;;;;;;5046623;28;20117;-74
2023/04/04 10:27:27;;;;;;;4.75;2.25;;;9.50;69.40;;;;;;5029524;28;20452;-77
2023/04/04 10:29:53;;;;;;;2.75;1.58;;;9.20;68.80;;;;;;5028977;28;20025;-78
2023/04/04 10:32:28;;;;;;;3.80;2.05;;;8.80;68.90;;;;;;5029608;28;20087;-77
2023/04/04 10:35:04;;;;;;;3.75;1.95;;;8.70;69.90;;;;;;5033593;28;20024;-77
2023/04/04 10:37:39;;;;;;;2.78;1.58;;;8.40;70.70;;;;;;5032087;28;20478;-75
2023/04/04 10:40:31;;;;;;;4.53;1.80;;;8.80;71.90;;;;;;5040224;28;20029;-76
2023/04/04 10:43:01;;;;;;;3.72;2.00;;;8.80;70.30;;;;;;5025208;28;20021;-75
2023/04/04 10:45:28;;;;;;;3.42;2.53;;;8.90;73.60;;;;;;5026779;28;20025;-75
2023/04/04 10:47:54;;;;;;;2.45;1.60;;;8.90;70.20;;;;;;5027855;28;20025;-75
2023/04/04 10:50:20;;;;;;;4.75;2.38;;;8.90;70.20;;;;;;5029770;28;20811;-76
2023/04/04 10:52:46;;;;;;;3.75;1.58;;;8.90;68.80;;;;;;5034816;28;20022;-76
2023/04/04 10:55:12;;;;;;;3.33;2.10;;;9.00;70.10;;;;;;5037499;28;20025;-75
2023/04/04 10:57:44;;;;;;;3.67;2.10;;;9.00;69.90;;;;;;5027301;28;20028;-75
2023/04/04 11:00:16;;;;;;;4.00;1.77;;;8.80;69.20;;;;;;5026781;28;20017;-75
2023/04/04 11:02:56;;;;;;;3.20;2.03;;;8.70;69.50;;;;;;5029361;28;20049;-75
2023/04/04 11:05:49;;;;;;;6.97;1.98;;;8.90;69.60;;;;;;5033587;28;20029;-76
2023/04/04 11:08:18;;;;;;;4.72;1.77;;;8.80;70.40;;;;;;5003803;28;20458;-75
2023/04/04 11:10:47;;;;;;;6.47;1.80;;;9.00;71.40;;;;;;5028614;28;20034;-75
2023/04/04 11:13:28;;;;;;;3.15;2.05;;;9.10;71.00;;;;;;5036926;28;20031;-77
2023/04/04 11:16:06;;;;;;;5.15;2.03;;;9.20;70.20;;;;;;5038954;28;20013;-75
2023/04/04 11:18:31;;;;;;;5.65;1.95;;;9.20;69.40;;;;;;5024591;28;20111;-76
2023/04/04 11:21:00;;;;;;;2.97;1.75;;;9.30;70.60;;;;;;5027784;28;20113;-76
2023/04/04 11:23:27;;;;;;;4.97;1.88;;;9.20;69.60;;;;;;5027558;28;20086;-76
2023/04/04 11:25:54;;;;;;;4.90;1.65;;;9.30;68.80;;;;;;5030351;28;20036;-75
2023/04/04 11:28:27;;;;;;;3.53;2.20;;;9.20;68.00;;;;;;5037214;28;20127;-76
2023/04/04 11:31:18;;;;;;;5.90;2.22;;;9.10;72.80;;;;;;5024901;28;20117;-76
2023/04/04 11:34:06;;;;;;;6.25;1.80;;;9.10;69.50;;;;;;5027486;28;20022;-76
2023/04/04 11:36:35;;;;;;;3.70;1.67;;;9.00;67.60;;;;;;5028810;28;20394;-77
2023/04/04 11:39:23;;;;;;;3.35;1.67;;;8.80;68.90;;;;;;5027342;28;20043;-75
2023/04/04 11:41:53;;;;;;;3.15;1.77;;;9.00;68.70;;;;;;5029306;28;20029;-76
2023/04/04 11:44:21;;;;;;;4.15;2.17;;;9.00;73.70;;;;;;5021081;28;20517;-76
2023/04/04 11:46:47;;;;;;;7.75;2.05;;;8.80;69.50;;;;;;5032549;28;20378;-75
2023/04/04 11:49:17;;;;;;;6.03;2.20;;;8.90;70.40;;;;;;5041164;28;20010;-78
2023/04/04 11:51:43;;;;;;;3.72;1.90;;;9.10;69.40;;;;;;5023963;28;20018;-79
2023/04/04 11:54:14;;;;;;;5.68;1.88;;;8.90;69.00;;;;;;5032738;28;20075;-78
2023/04/04 11:56:43;;;;;;;2.50;1.77;;;8.80;70.40;;;;;;5029303;28;20041;-77
2023/04/04 11:59:10;;;;;;;3.38;1.80;;;8.80;69.30;;;;;;5025927;28;20261;-75
2023/04/04 12:01:36;;;;;;;4.38;1.75;;;8.70;70.50;;;;;;5032067;28;20028;-76
2023/04/04 12:04:03;;;;;;;6.68;1.90;;;8.70;70.10;;;;;;5027112;28;20026;-76
2023/04/04 12:06:34;;;;;;;2.80;1.73;;;8.70;69.10;;;;;;5025607;28;20522;-76
2023/04/04 12:09:02;;;;;;;4.45;1.50;;;8.70;67.10;;;;;;5013649;28;20532;-75
2023/04/04 12:11:39;;;;;;;3.50;1.70;;;8.70;67.70;;;;;;5023391;28;20489;-75
2023/04/04 12:14:05;;;;;;;5.00;1.48;;;8.60;66.70;;;;;;5030655;28;20485;-76
2023/04/04 12:16:30;;;;;;;1.98;1.30;;;8.60;68.40;;;;;;5033678;28;20083;-75
2023/04/04 12:18:59;;;;;;;2.83;1.55;;;8.60;67.90;;;;;;5028000;28;20026;-76
2023/04/04 12:21:25;;;;;;;3.92;1.85;;;8.70;67.10;;;;;;5031935;28;20053;-75
2023/04/04 12:23:51;;;;;;;8.82;1.70;;;8.70;66.60;;;;;;5031081;28;20065;-76
2023/04/04 12:26:18;;;;;;;7.30;1.73;;;8.80;66.70;;;;;;5027858;28;20424;-75
2023/04/04 12:28:44;;;;;;;3.72;1.38;;;8.70;72.00;;;;;;5028472;28;20056;-75
2023/04/04 12:31:11;;;;;;;3.22;1.80;;;8.80;66.40;;;;;;5033113;28;20075;-75
2023/04/04 12:33:39;;;;;;;4.78;2.50;;;8.90;66.40;;;;;;5042991;22;20073;-63
2023/04/04 12:36:08;;;;;;;2.78;1.40;;;8.80;65.50;;;;;;5008388;28;20041;-68
2023/04/04 12:38:33;;;;;;;2.20;1.50;;;8.70;67.70;;;;;;5008375;28;20033;-68
2023/04/04 12:40:59;;;;;;;4.47;1.58;;;8.60;64.10;;;;;;5011194;28;20018;-69
2023/04/04 12:43:30;;;;;;;3.67;1.52;;;8.50;66.50;;;;;;5011290;28;20065;-69
2023/04/04 12:45:56;;;;;;;5.35;1.50;;;8.70;66.50;;;;;;5009515;28;20431;-68
2023/04/04 12:48:28;;;;;;;2.67;1.13;;;8.70;65.60;;;;;;5010977;28;20029;-68
2023/04/04 12:50:59;;;;;;;5.55;1.58;;;8.80;67.90;;;;;;5004895;28;20183;-68